createdAt,value
2023-02-14T00:01:20.716Z,73.58
2023-02-14T00:03:49.473Z,73.57
2023-02-14T00:06:16.946Z,73.65
2023-02-14T00:08:47.089Z,73.40
2023-02-14T00:11:14.985Z,73.43
2023-02-14T00:14:02.315Z,73.42
2023-02-14T00:16:29.594Z,73.38
2023-02-14T00:19:06.193Z,73.49
2023-02-14T00:21:38.668Z,73.88
2023-02-14T00:24:12.858Z,73.80
2023-02-14T00:26:40.768Z,73.74
2023-02-14T00:29:12.245Z,73.75
2023-02-14T00:31:39.910Z,73.72
2023-02-14T00:34:08.505Z,73.75
2023-02-14T00:36:36.543Z,73.89
2023-02-14T00:39:05.780Z,73.82
2023-02-14T00:41:33.758Z,73.40
2023-02-14T00:44:00.965Z,73.56
2023-02-14T00:46:28.863Z,73.98
2023-02-14T00:48:56.499Z,74.05
2023-02-14T00:51:24.036Z,74.20
2023-02-14T00:53:52.015Z,74.46
2023-02-14T00:56:20.791Z,74.39
2023-02-14T00:58:48.609Z,74.49
2023-02-14T01:01:17.722Z,74.36
2023-02-14T01:03:44.855Z,74.35
2023-02-14T01:06:11.983Z,74.36
2023-02-14T01:08:39.261Z,74.36
2023-02-14T01:11:18.297Z,75.02
2023-02-14T01:13:46.819Z,75.18
2023-02-14T01:16:18.803Z,75.01
2023-02-14T01:18:46.595Z,75.52
2023-02-14T01:21:40.203Z,75.24
2023-02-14T01:24:08.455Z,75.07
2023-02-14T01:26:36.478Z,75.70
2023-02-14T01:29:05.380Z,75.60
2023-02-14T01:31:35.210Z,75.70
2023-02-14T01:34:03.155Z,76.17
2023-02-14T01:36:37.751Z,76.05
2023-02-14T01:39:14.111Z,76.08
2023-02-14T01:41:43.774Z,75.81
2023-02-14T01:44:16.962Z,76.13
2023-02-14T01:46:46.535Z,76.33
2023-02-14T01:49:22.617Z,76.45
2023-02-14T01:52:13.607Z,76.69
2023-02-14T01:54:51.747Z,76.55
2023-02-14T01:57:21.173Z,76.47
2023-02-14T01:59:55.344Z,76.82
2023-02-14T02:02:24.096Z,76.47
2023-02-14T02:04:56.041Z,77.20
2023-02-14T02:07:26.578Z,77.07
2023-02-14T02:10:01.330Z,77.51
2023-02-14T02:12:30.769Z,77.04
2023-02-14T02:15:00.260Z,77.50
2023-02-14T02:17:58.371Z,77.57
2023-02-14T02:20:43.661Z,77.81
2023-02-14T02:23:28.457Z,77.34
2023-02-14T02:26:07.564Z,77.45
2023-02-14T02:28:49.282Z,77.35
2023-02-14T02:31:53.941Z,77.79
2023-02-14T02:35:08.305Z,78.15
2023-02-14T02:37:57.162Z,78.38
2023-02-14T02:40:40.432Z,78.56
2023-02-14T02:43:31.016Z,78.37
2023-02-14T02:46:37.657Z,78.40
2023-02-14T02:50:08.861Z,78.89
2023-02-14T02:53:08.252Z,78.81
2023-02-14T02:56:09.998Z,78.14
2023-02-14T02:58:50.612Z,78.15
2023-02-14T03:01:23.894Z,78.49
2023-02-14T03:04:18.178Z,78.21
2023-02-14T03:06:46.393Z,78.01
2023-02-14T03:09:19.592Z,78.31
2023-02-14T03:12:25.393Z,78.60
2023-02-14T03:15:36.640Z,78.38
2023-02-14T03:18:58.159Z,78.61
2023-02-14T03:21:55.412Z,78.59
2023-02-14T03:24:47.473Z,78.65
2023-02-14T03:27:35.373Z,78.54
2023-02-14T03:30:14.547Z,79.18
2023-02-14T03:33:08.687Z,78.98
2023-02-14T03:36:04.001Z,78.91
2023-02-14T03:38:56.034Z,79.64
2023-02-14T03:41:29.812Z,79.39
2023-02-14T03:44:01.640Z,79.85
2023-02-14T03:46:46.680Z,79.66
2023-02-14T03:49:19.968Z,79.80
2023-02-14T03:51:51.663Z,80.29
2023-02-14T03:54:21.900Z,79.48
2023-02-14T03:57:01.821Z,79.19
2023-02-14T03:59:29.588Z,79.81
2023-02-14T04:02:39.099Z,79.05
2023-02-14T04:05:15.931Z,79.66
2023-02-14T04:07:53.448Z,80.13
2023-02-14T04:10:22.017Z,80.18
2023-02-14T04:12:49.977Z,79.85
2023-02-14T04:15:18.112Z,80.15
2023-02-14T04:18:03.806Z,80.00
2023-02-14T04:20:31.030Z,80.19
2023-02-14T04:22:58.132Z,79.81
2023-02-14T04:25:25.307Z,80.40
2023-02-14T04:27:52.467Z,80.16
2023-02-14T04:30:21.709Z,80.90
2023-02-14T04:32:50.036Z,80.64
2023-02-14T04:35:17.312Z,80.51
2023-02-14T04:37:45.739Z,80.91
2023-02-14T04:40:16.996Z,80.87
2023-02-14T04:42:46.044Z,80.66
2023-02-14T04:45:14.180Z,80.90
2023-02-14T04:47:41.442Z,81.00
2023-02-14T04:50:09.084Z,81.39
2023-02-14T04:52:36.302Z,81.02
2023-02-14T04:55:04.593Z,81.30
2023-02-14T04:57:31.836Z,81.79
2023-02-14T04:59:58.961Z,81.10
2023-02-14T05:02:26.254Z,81.57
2023-02-14T05:04:53.351Z,81.56
2023-02-14T05:07:20.382Z,81.71
2023-02-14T05:09:47.416Z,81.33
2023-02-14T05:12:15.686Z,81.60
2023-02-14T05:14:43.275Z,82.10
2023-02-14T05:17:10.291Z,81.69
2023-02-14T05:19:37.412Z,81.35
2023-02-14T05:22:04.505Z,81.38
2023-02-14T05:24:31.630Z,81.12
2023-02-14T05:26:58.725Z,81.52
2023-02-14T05:29:25.867Z,81.46
2023-02-14T05:31:53.350Z,81.58
2023-02-14T05:34:21.816Z,81.37
2023-02-14T05:36:49.035Z,81.36
2023-02-14T05:39:16.097Z,81.04
2023-02-14T05:41:43.128Z,81.45
2023-02-14T05:44:10.180Z,81.26
2023-02-14T05:46:37.268Z,81.57
2023-02-14T05:49:04.981Z,81.54
2023-02-14T05:51:32.068Z,82.17
2023-02-14T05:54:00.222Z,82.38
2023-02-14T05:56:27.640Z,82.32
2023-02-14T05:58:54.651Z,82.15
2023-02-14T06:01:21.739Z,82.14
2023-02-14T06:03:48.797Z,82.18
2023-02-14T06:06:15.832Z,82.29
2023-02-14T06:08:42.872Z,82.15
2023-02-14T06:11:09.874Z,82.09
2023-02-14T06:13:36.883Z,82.09
2023-02-14T06:16:04.998Z,82.06
2023-02-14T06:18:32.100Z,81.95
2023-02-14T06:20:59.465Z,82.03
2023-02-14T06:23:26.699Z,82.21
2023-02-14T06:25:53.762Z,82.11
2023-02-14T06:28:20.841Z,81.98
2023-02-14T06:30:48.124Z,82.28
2023-02-14T06:33:15.226Z,82.32
2023-02-14T06:35:42.239Z,81.48
2023-02-14T06:38:09.242Z,81.97
2023-02-14T06:40:36.304Z,81.95
2023-02-14T06:43:03.398Z,82.53
2023-02-14T06:45:30.458Z,82.38
2023-02-14T06:47:57.455Z,82.26
2023-02-14T06:50:24.482Z,82.15
2023-02-14T06:52:51.626Z,82.01
2023-02-14T06:55:18.976Z,81.74
2023-02-14T06:57:46.188Z,81.56
2023-02-14T07:00:14.946Z,81.52
2023-02-14T07:02:42.403Z,81.42
2023-02-14T07:05:09.761Z,81.31
2023-02-14T07:07:36.870Z,80.86
2023-02-14T07:10:04.413Z,80.76
2023-02-14T07:12:31.466Z,80.93
2023-02-14T07:14:58.523Z,81.07
2023-02-14T07:17:25.582Z,80.90
2023-02-14T07:19:52.640Z,81.29
2023-02-14T07:22:19.688Z,81.40
2023-02-14T07:24:46.696Z,81.32
2023-02-14T07:27:13.754Z,81.54
2023-02-14T07:29:40.988Z,81.44
2023-02-14T07:32:08.199Z,81.10
2023-02-14T07:34:35.311Z,81.11
2023-02-14T07:37:02.616Z,81.19
2023-02-14T07:39:29.822Z,81.00
2023-02-14T07:41:56.855Z,80.90
2023-02-14T07:44:23.894Z,81.31
2023-02-14T07:46:50.973Z,80.90
2023-02-14T07:49:18.103Z,80.87
2023-02-14T07:51:45.120Z,80.69
2023-02-14T07:54:12.126Z,80.34
2023-02-14T07:56:39.193Z,80.67
2023-02-14T07:59:06.218Z,79.87
2023-02-14T08:01:33.259Z,79.24
2023-02-14T08:04:00.273Z,79.53
2023-02-14T08:06:28.043Z,79.52
2023-02-14T08:08:55.087Z,79.54
2023-02-14T08:11:40.828Z,78.87
2023-02-14T08:14:08.104Z,78.74
2023-02-14T08:16:35.312Z,78.90
2023-02-14T08:19:02.963Z,78.73
2023-02-14T08:21:30.471Z,78.08
2023-02-14T08:23:57.782Z,78.33
2023-02-14T08:26:25.503Z,78.89
2023-02-14T08:28:52.588Z,78.63
2023-02-14T08:31:35.219Z,78.46
2023-02-14T08:34:04.504Z,78.63
2023-02-14T08:36:31.758Z,78.40
2023-02-14T08:38:58.962Z,78.76
2023-02-14T08:41:26.003Z,78.65
2023-02-14T08:43:53.071Z,78.59
2023-02-14T08:46:20.133Z,78.38
2023-02-14T08:48:47.275Z,77.80
2023-02-14T08:51:15.178Z,77.32
2023-02-14T08:53:43.271Z,76.99
2023-02-14T08:56:13.543Z,76.97
2023-02-14T08:58:41.582Z,76.42
2023-02-14T09:01:15.479Z,76.52
2023-02-14T09:03:43.016Z,76.56
2023-02-14T09:06:17.495Z,76.72
2023-02-14T09:08:45.639Z,76.64
2023-02-14T09:11:22.474Z,76.75
2023-02-14T09:13:53.328Z,76.91
2023-02-14T09:16:23.372Z,76.81
2023-02-14T09:18:52.735Z,76.58
2023-02-14T09:21:24.474Z,76.53
2023-02-14T09:23:52.550Z,76.58
2023-02-14T09:26:20.664Z,76.11
2023-02-14T09:28:48.099Z,75.57
2023-02-14T09:31:20.372Z,75.62
2023-02-14T09:34:07.674Z,75.54
2023-02-14T09:36:53.409Z,75.28
2023-02-14T09:39:20.472Z,74.58
2023-02-14T09:41:56.876Z,74.96
2023-02-14T09:44:47.222Z,74.66
2023-02-14T09:47:19.867Z,74.67
2023-02-14T09:49:49.004Z,74.65
2023-02-14T09:52:21.167Z,74.75
2023-02-14T09:54:55.242Z,74.69
2023-02-14T09:58:15.180Z,74.32
2023-02-14T10:01:00.359Z,74.69
2023-02-14T10:04:01.639Z,74.15
2023-02-14T10:06:54.110Z,74.48
2023-02-14T10:09:50.223Z,74.00
2023-02-14T10:12:37.901Z,73.56
2023-02-14T10:15:26.402Z,73.99
2023-02-14T10:18:10.372Z,74.16
2023-02-14T10:21:02.021Z,74.45
2023-02-14T10:23:51.594Z,73.96
2023-02-14T10:26:41.374Z,74.33
2023-02-14T10:29:16.212Z,73.84
2023-02-14T10:32:00.530Z,73.70
2023-02-14T10:34:50.459Z,73.08
2023-02-14T10:37:41.477Z,73.64
2023-02-14T10:40:17.591Z,73.14
2023-02-14T10:43:02.632Z,73.16
2023-02-14T10:45:56.821Z,73.75
2023-02-14T10:48:58.736Z,73.48
2023-02-14T10:51:47.931Z,72.87
2023-02-14T10:54:50.595Z,72.87
2023-02-14T10:57:36.592Z,73.30
2023-02-14T11:00:12.537Z,72.95
2023-02-14T11:02:45.764Z,73.23
2023-02-14T11:05:34.949Z,73.18
2023-02-14T11:08:02.341Z,73.23
2023-02-14T11:10:34.231Z,72.50
2023-02-14T11:13:01.312Z,72.67
2023-02-14T11:15:39.723Z,73.06
2023-02-14T11:18:24.463Z,72.43
2023-02-14T11:21:24.275Z,72.68
2023-02-14T11:23:51.975Z,72.78
2023-02-14T11:26:32.822Z,72.40
2023-02-14T11:29:14.310Z,72.02
2023-02-14T11:31:42.979Z,71.41
2023-02-14T11:34:40.513Z,71.31
2023-02-14T11:37:25.196Z,71.29
2023-02-14T11:39:55.400Z,71.15
2023-02-14T11:42:45.513Z,70.79
2023-02-14T11:45:29.369Z,70.87
2023-02-14T11:48:10.212Z,71.07
2023-02-14T11:50:38.842Z,70.89
2023-02-14T11:53:10.809Z,70.83
2023-02-14T11:55:38.485Z,70.95
2023-02-14T11:58:08.108Z,70.37
2023-02-14T12:00:35.361Z,70.75
2023-02-14T12:03:06.185Z,70.58
2023-02-14T12:05:48.732Z,70.07
2023-02-14T12:08:23.761Z,70.30
2023-02-14T12:11:23.892Z,70.55
2023-02-14T12:13:57.344Z,70.45
2023-02-14T12:16:39.393Z,70.39
2023-02-14T12:19:24.449Z,70.21
2023-02-14T12:22:03.364Z,70.33
2023-02-14T12:24:38.377Z,69.98
2023-02-14T12:27:39.964Z,70.39
2023-02-14T12:30:19.826Z,69.85
2023-02-14T12:32:58.701Z,69.81
2023-02-14T12:35:54.966Z,69.41
2023-02-14T12:39:00.585Z,69.13
2023-02-14T12:41:54.472Z,68.93
2023-02-14T12:44:36.332Z,69.33
2023-02-14T12:47:49.758Z,69.29
2023-02-14T12:50:39.099Z,68.70
2023-02-14T12:53:29.833Z,68.77
2023-02-14T12:56:40.625Z,68.96
2023-02-14T12:59:40.844Z,69.25
2023-02-14T13:02:41.334Z,69.12
2023-02-14T13:05:35.855Z,69.46
2023-02-14T13:08:31.297Z,69.45
2023-02-14T13:11:26.041Z,69.59
2023-02-14T13:14:15.159Z,69.67
2023-02-14T13:17:14.675Z,69.41
2023-02-14T13:20:33.648Z,69.61
2023-02-14T13:23:12.567Z,69.17
2023-02-14T13:26:05.959Z,68.06
2023-02-14T13:28:33.947Z,68.11
2023-02-14T13:31:02.043Z,68.36
2023-02-14T13:33:37.153Z,68.62
2023-02-14T13:36:11.324Z,68.84
2023-02-14T13:41:28.310Z,68.24
2023-02-14T13:44:02.812Z,68.52
2023-02-14T13:46:33.010Z,69.16
2023-02-14T13:49:32.742Z,68.71
2023-02-14T13:52:05.643Z,68.71
2023-02-14T13:54:48.421Z,69.10
2023-02-14T13:57:31.721Z,68.97
2023-02-14T14:00:44.490Z,68.88
2023-02-14T14:03:31.489Z,69.92
2023-02-14T14:06:06.081Z,69.71
2023-02-14T14:08:44.034Z,70.31
2023-02-14T14:11:21.394Z,69.95
2023-02-14T14:14:24.195Z,70.05
2023-02-14T14:17:00.773Z,70.23
2023-02-14T14:19:27.714Z,69.72
2023-02-14T14:22:03.168Z,70.71
2023-02-14T14:24:51.882Z,70.81
2023-02-14T14:27:25.085Z,70.90
2023-02-14T14:29:56.815Z,70.82
2023-02-14T14:32:35.296Z,71.48
2023-02-14T14:35:12.750Z,70.86
2023-02-14T14:37:55.212Z,71.38
2023-02-14T14:40:31.593Z,71.92
2023-02-14T14:43:29.108Z,72.02
2023-02-14T14:45:59.967Z,72.32
2023-02-14T14:48:35.837Z,72.13
2023-02-14T14:51:06.254Z,72.24
2023-02-14T14:53:47.012Z,72.08
2023-02-14T14:56:29.444Z,72.59
2023-02-14T14:58:57.217Z,72.56
2023-02-14T15:01:39.459Z,72.79
2023-02-14T15:04:18.556Z,72.68
2023-02-14T15:06:47.820Z,73.16
2023-02-14T15:09:32.476Z,73.04
2023-02-14T15:12:21.456Z,73.14
2023-02-14T15:14:54.790Z,73.57
2023-02-14T15:17:31.710Z,73.88
2023-02-14T15:20:17.790Z,73.96
2023-02-14T15:22:48.455Z,73.75
2023-02-14T15:25:32.909Z,74.14
2023-02-14T15:28:00.884Z,73.64
2023-02-14T15:30:34.337Z,74.06
2023-02-14T15:33:06.398Z,74.27
2023-02-14T15:35:40.040Z,74.42
2023-02-14T15:38:10.412Z,75.00
2023-02-14T15:40:38.944Z,75.31
2023-02-14T15:43:36.310Z,74.78
2023-02-14T15:46:26.693Z,74.94
2023-02-14T15:49:00.882Z,74.54
2023-02-14T15:51:32.742Z,75.33
2023-02-14T15:54:02.970Z,75.52
2023-02-14T15:56:58.801Z,76.41
2023-02-14T15:59:32.467Z,76.17
2023-02-14T16:02:20.788Z,76.53
2023-02-14T16:04:48.056Z,76.44
2023-02-14T16:07:29.723Z,76.64
2023-02-14T16:10:28.930Z,76.57
2023-02-14T16:13:01.995Z,77.13
2023-02-14T16:15:43.821Z,77.01
2023-02-14T16:18:36.871Z,77.03
2023-02-14T16:21:19.689Z,76.63
2023-02-14T16:24:10.792Z,77.56
2023-02-14T16:26:43.056Z,77.59
2023-02-14T16:29:13.740Z,77.74
2023-02-14T16:32:12.039Z,77.89
2023-02-14T16:34:35.616Z,77.76
2023-02-14T16:37:22.309Z,78.02
2023-02-14T16:39:52.805Z,78.44
2023-02-14T16:42:20.716Z,78.26
2023-02-14T16:44:48.239Z,78.57
2023-02-14T16:47:19.399Z,78.42
2023-02-14T16:49:46.837Z,78.91
2023-02-14T16:52:24.063Z,79.39
2023-02-14T16:54:51.975Z,79.20
2023-02-14T16:57:28.167Z,79.69
2023-02-14T16:59:56.889Z,79.79
2023-02-14T17:02:28.242Z,79.68
2023-02-14T17:04:55.613Z,79.53
2023-02-14T17:07:23.310Z,80.17
2023-02-14T17:09:56.509Z,80.73
2023-02-14T17:12:32.675Z,80.70
2023-02-14T17:15:06.149Z,80.26
2023-02-14T17:17:36.309Z,80.48
2023-02-14T17:20:06.310Z,80.78
2023-02-14T17:22:34.493Z,80.95
2023-02-14T17:25:01.579Z,80.91
2023-02-14T17:27:28.617Z,80.80
2023-02-14T17:29:55.717Z,81.09
2023-02-14T17:32:22.845Z,80.70
2023-02-14T17:34:49.982Z,81.28
2023-02-14T17:37:18.996Z,81.36
2023-02-14T17:39:46.232Z,81.36
2023-02-14T17:42:13.345Z,81.66
2023-02-14T17:44:40.459Z,81.60
2023-02-14T17:47:07.579Z,81.91
2023-02-14T17:49:34.610Z,82.17
2023-02-14T17:52:01.625Z,82.49
2023-02-14T17:54:28.664Z,81.83
2023-02-14T17:56:55.669Z,82.47
2023-02-14T17:59:22.780Z,82.21
2023-02-14T18:01:49.829Z,82.40
2023-02-14T18:04:16.927Z,82.56
2023-02-14T18:06:43.970Z,83.12
2023-02-14T18:09:11.020Z,82.77
2023-02-14T18:11:40.523Z,83.45
2023-02-14T18:14:07.868Z,83.07
2023-02-14T18:16:38.792Z,83.31
2023-02-14T18:19:08.603Z,82.87
2023-02-14T18:21:39.942Z,83.22
2023-02-14T18:24:07.814Z,83.51
2023-02-14T18:26:38.446Z,83.30
2023-02-14T18:29:07.464Z,83.59
2023-02-14T18:31:37.652Z,83.37
2023-02-14T18:34:05.196Z,83.67
2023-02-14T18:36:34.680Z,83.26
2023-02-14T18:39:01.817Z,83.57
2023-02-14T18:41:29.808Z,83.39
2023-02-14T18:43:57.129Z,83.10
2023-02-14T18:46:31.551Z,83.73
2023-02-14T18:48:58.961Z,84.01
2023-02-14T18:51:32.222Z,84.01
2023-02-14T18:54:01.553Z,83.81
2023-02-14T18:56:33.051Z,84.09
2023-02-14T18:59:07.090Z,83.80
2023-02-14T19:01:38.201Z,84.09
2023-02-14T19:04:08.783Z,84.27
2023-02-14T19:06:36.860Z,84.48
2023-02-14T19:09:10.597Z,84.34
2023-02-14T19:11:38.215Z,84.36
2023-02-14T19:14:10.120Z,84.53
2023-02-14T19:16:53.670Z,84.94
2023-02-14T19:19:22.977Z,85.15
2023-02-14T19:21:50.980Z,85.17
2023-02-14T19:24:19.813Z,84.79
2023-02-14T19:26:47.471Z,85.03
2023-02-14T19:29:18.181Z,85.24
2023-02-14T19:31:51.804Z,84.65
2023-02-14T19:34:30.972Z,84.53
2023-02-14T19:37:01.290Z,84.76
2023-02-14T19:39:30.099Z,84.84
2023-02-14T19:41:58.022Z,84.57
2023-02-14T19:44:26.122Z,84.90
2023-02-14T19:46:56.727Z,84.64
2023-02-14T19:49:26.919Z,84.67
2023-02-14T19:51:54.732Z,84.66
2023-02-14T19:54:22.911Z,84.81
2023-02-14T19:56:49.932Z,84.39
2023-02-14T19:59:20.464Z,84.65
2023-02-14T20:01:56.947Z,85.06
2023-02-14T20:04:28.575Z,85.59
2023-02-14T20:06:56.955Z,85.63
2023-02-14T20:09:25.696Z,85.46
2023-02-14T20:11:55.668Z,85.85
2023-02-14T20:14:29.875Z,85.19
2023-02-14T20:16:59.742Z,85.32
2023-02-14T20:19:32.746Z,85.63
2023-02-14T20:22:00.435Z,85.67
2023-02-14T20:24:31.406Z,86.24
2023-02-14T20:27:00.420Z,86.24
2023-02-14T20:29:28.127Z,86.44
2023-02-14T20:32:00.230Z,86.23
2023-02-14T20:34:27.742Z,86.23
2023-02-14T20:36:56.030Z,86.60
2023-02-14T20:39:32.418Z,86.57
2023-02-14T20:42:00.854Z,86.31
2023-02-14T20:44:28.583Z,86.16
2023-02-14T20:46:57.392Z,86.29
2023-02-14T20:49:27.274Z,86.43
2023-02-14T20:51:54.535Z,86.96
2023-02-14T20:54:24.183Z,86.81
2023-02-14T20:56:51.719Z,86.20
2023-02-14T20:59:24.380Z,87.00
2023-02-14T21:01:51.566Z,86.56
2023-02-14T21:04:18.591Z,86.56
2023-02-14T21:06:45.724Z,86.31
2023-02-14T21:09:12.716Z,86.54
2023-02-14T21:11:41.320Z,86.04
2023-02-14T21:14:08.412Z,85.38
2023-02-14T21:16:35.455Z,85.89
2023-02-14T21:19:02.556Z,85.99
2023-02-14T21:21:36.494Z,86.58
2023-02-14T21:24:14.540Z,86.96
2023-02-14T21:26:42.097Z,87.31
2023-02-14T21:29:10.089Z,87.89
2023-02-14T21:31:38.699Z,87.38
2023-02-14T21:34:06.358Z,87.32
2023-02-14T21:36:36.027Z,87.19
2023-02-14T21:39:04.949Z,87.49
2023-02-14T21:41:32.443Z,87.44
2023-02-14T21:44:01.161Z,87.25
2023-02-14T21:46:32.670Z,87.09
2023-02-14T21:49:24.522Z,86.97
2023-02-14T21:51:51.659Z,87.45
2023-02-14T21:54:18.986Z,87.34
2023-02-14T21:56:46.058Z,87.27
2023-02-14T21:59:14.091Z,87.69
2023-02-14T22:01:42.516Z,87.59
2023-02-14T22:04:12.295Z,87.69
2023-02-14T22:06:41.730Z,87.63
2023-02-14T22:09:09.940Z,87.31
2023-02-14T22:11:37.213Z,87.44
2023-02-14T22:14:04.469Z,87.07
2023-02-14T22:16:31.943Z,87.42
2023-02-14T22:18:58.998Z,87.39
2023-02-14T22:21:27.209Z,87.97
2023-02-14T22:23:55.402Z,87.85
2023-02-14T22:26:30.669Z,87.80
2023-02-14T22:29:00.821Z,87.35
2023-02-14T22:31:32.771Z,87.54
2023-02-14T22:33:59.931Z,87.91
2023-02-14T22:36:27.080Z,87.73
2023-02-14T22:38:54.324Z,88.10
2023-02-14T22:41:24.529Z,87.80
2023-02-14T22:43:53.230Z,88.45
2023-02-14T22:46:27.473Z,88.70
2023-02-14T22:48:55.971Z,89.02
2023-02-14T22:51:40.691Z,88.76
2023-02-14T22:54:14.968Z,87.76
2023-02-14T22:56:45.999Z,87.63
2023-02-14T22:59:19.188Z,88.34
2023-02-14T23:01:47.663Z,88.01
2023-02-14T23:04:17.183Z,88.44
2023-02-14T23:06:44.693Z,88.53
2023-02-14T23:09:13.135Z,88.07
2023-02-14T23:11:43.135Z,87.84
2023-02-14T23:14:34.042Z,88.22
2023-02-14T23:17:20.502Z,88.62
2023-02-14T23:20:07.071Z,89.18
2023-02-14T23:22:37.857Z,89.23
2023-02-14T23:25:09.165Z,89.04
2023-02-14T23:27:41.416Z,88.83
2023-02-14T23:30:13.347Z,89.03
2023-02-14T23:32:41.045Z,89.23
2023-02-14T23:35:08.606Z,88.99
2023-02-14T23:37:35.899Z,89.03
2023-02-14T23:40:04.107Z,89.30
2023-02-14T23:42:31.254Z,89.51
2023-02-14T23:45:18.459Z,89.04
2023-02-14T23:47:45.535Z,89.06
2023-02-14T23:50:12.613Z,88.78
2023-02-14T23:52:41.771Z,89.07
2023-02-14T23:55:09.784Z,88.99
2023-02-14T23:57:37.362Z,89.07
